Time;durP1;ratioP1;P1;durP2;ratioP2;P2;SDS_P1;SDS_P2;PMS_P1;PMS_P2;Temp;Humidity;BMP_temperature;BMP_pressure;BME280_temperature;BME280_humidity;BME280_pressure;Samples;Min_cycle;Max_cycle;Signal;HPM_P1;HPM_P2
2023/02/18 00:02:28;;;;;;;8.90;1.70;;;;;;;7.95;91.79;99620.81;103688;1282;99301;-77
2023/02/18 00:05:13;;;;;;;8.00;1.80;;;;;;;7.92;91.04;99622.47;103748;1282;98461;-76
2023/02/18 00:07:58;;;;;;;5.90;2.10;;;;;;;7.90;90.80;99630.58;103606;1280;98123;-77
2023/02/18 00:10:43;;;;;;;8.50;2.00;;;;;;;7.88;90.39;99638.67;103606;1280;99601;-76
2023/02/18 00:13:28;;;;;;;7.30;2.10;;;;;;;7.85;89.36;99632.84;103996;1280;102182;-77
2023/02/18 00:16:12;;;;;;;8.30;2.00;;;;;;;7.81;88.86;99635.19;103591;1277;99509;-75
2023/02/18 00:18:59;;;;;;;10.10;2.80;;;;;;;7.78;88.62;99628.34;103623;1279;98043;-76
2023/02/18 00:21:45;;;;;;;7.50;2.70;;;;;;;7.75;88.23;99624.95;103596;1279;98887;-77
2023/02/18 00:24:30;;;;;;;10.20;2.30;;;;;;;7.73;88.19;99635.89;103544;1282;98440;-75
2023/02/18 00:27:15;;;;;;;8.80;2.00;;;;;;;7.70;87.92;99638.73;103755;1280;101462;-76
2023/02/18 00:30:00;;;;;;;9.70;1.90;;;;;;;7.67;87.64;99643.00;103680;1280;100456;-75
2023/02/18 00:32:44;;;;;;;12.20;2.10;;;;;;;7.64;87.46;99657.29;103593;1292;99751;-76
2023/02/18 00:35:29;;;;;;;8.40;1.80;;;;;;;7.59;86.82;99663.97;103608;1280;99149;-76
2023/02/18 00:38:14;;;;;;;5.10;1.60;;;;;;;7.56;86.29;99659.71;103767;1279;97938;-76
2023/02/18 00:40:59;;;;;;;7.70;1.40;;;;;;;7.55;85.67;99663.39;103606;1280;101487;-76
2023/02/18 00:43:44;;;;;;;10.60;1.90;;;;;;;7.55;85.88;99672.09;103528;1280;100424;-75
2023/02/18 00:46:29;;;;;;;11.00;2.30;;;;;;;7.53;85.80;99663.95;103646;1282;97994;-76
2023/02/18 00:49:15;;;;;;;7.60;2.00;;;;;;;7.51;85.49;99662.41;103586;1280;97992;-76
2023/02/18 00:51:59;;;;;;;11.60;2.10;;;;;;;7.50;85.33;99663.83;103604;1281;98619;-76
2023/02/18 00:54:44;;;;;;;11.40;2.60;;;;;;;7.48;85.15;99664.14;103631;1280;102790;-76
2023/02/18 00:57:29;;;;;;;7.70;1.50;;;;;;;7.47;84.71;99664.08;103652;1278;99395;-76
2023/02/18 01:00:13;;;;;;;7.80;1.80;;;;;;;7.46;84.70;99665.43;103743;1282;97936;-76
2023/02/18 01:02:58;;;;;;;10.40;2.10;;;;;;;7.46;84.70;99665.63;103743;1279;97934;-76
2023/02/18 01:05:44;;;;;;;12.20;2.20;;;;;;;7.45;84.39;99659.35;103604;1279;97997;-76
2023/02/18 01:08:28;;;;;;;8.60;1.60;;;;;;;7.44;84.09;99664.79;103639;1280;101439;-76
2023/02/18 01:11:13;;;;;;;9.20;2.10;;;;;;;7.43;83.98;99676.23;103570;1279;99732;-77
2023/02/18 01:13:58;;;;;;;6.80;2.70;;;;;;;7.43;84.19;99673.56;103694;1280;98033;-75
2023/02/18 01:16:43;;;;;;;8.00;1.90;;;;;;;7.43;84.21;99669.20;103675;1282;98938;-76
2023/02/18 01:19:28;;;;;;;13.30;3.00;;;;;;;7.41;84.12;99662.88;103768;1278;98555;-79
2023/02/18 01:22:12;;;;;;;6.10;1.70;;;;;;;7.38;83.85;99663.21;103951;1282;101529;-79
2023/02/18 01:24:59;;;;;;;8.90;2.60;;;;;;;7.37;83.99;99660.37;103803;1280;99282;-75
2023/02/18 01:27:44;;;;;;;7.60;1.90;;;;;;;7.34;83.91;99659.95;103732;1280;99146;-76
2023/02/18 01:30:29;;;;;;;13.10;3.20;;;;;;;7.33;83.84;99659.64;103539;1281;98527;-77
2023/02/18 01:33:13;;;;;;;10.70;2.60;;;;;;;7.31;83.78;99653.05;103755;1279;98532;-76
2023/02/18 01:35:58;;;;;;;5.60;1.80;;;;;;;7.29;83.81;99650.61;103883;1281;101444;-76
2023/02/18 01:38:43;;;;;;;12.60;2.20;;;;;;;7.27;83.83;99651.95;103886;1280;99149;-78
2023/02/18 01:41:28;;;;;;;7.60;2.10;;;;;;;7.25;83.79;99657.02;103787;1280;98985;-78
2023/02/18 01:44:18;;;;;;;12.70;2.40;;;;;;;7.23;83.42;99657.52;103692;1279;98596;-77
2023/02/18 01:47:03;;;;;;;9.00;3.10;;;;;;;7.20;83.48;99657.81;103557;1282;98215;-75
2023/02/18 01:49:51;;;;;;;11.60;1.90;;;;;;;7.18;83.25;99658.58;103566;1282;101355;-77
2023/02/18 01:52:36;;;;;;;14.90;2.80;;;;;;;7.15;83.10;99660.89;103597;1282;100944;-77
2023/02/18 01:55:21;;;;;;;6.40;1.70;;;;;;;7.14;82.99;99669.09;103549;1282;97873;-76
2023/02/18 01:58:06;;;;;;;12.10;2.40;;;;;;;7.11;82.89;99669.02;103649;1279;98436;-75
2023/02/18 02:00:51;;;;;;;5.40;1.80;;;;;;;7.10;82.77;99661.25;103628;1279;100940;-77
2023/02/18 02:03:35;;;;;;;10.00;1.90;;;;;;;7.08;82.55;99666.64;103549;1279;102779;-77
2023/02/18 02:06:22;;;;;;;11.00;2.30;;;;;;;7.07;82.44;99674.58;103645;1281;99419;-76
2023/02/18 02:09:11;;;;;;;8.90;2.50;;;;;;;7.05;82.09;99673.04;103928;1280;98512;-77
2023/02/18 02:12:17;;;;;;;7.70;1.90;;;;;;;7.03;81.90;99669.36;103602;1280;97919;-77
2023/02/18 02:15:17;;;;;;;13.30;2.60;;;;;;;7.02;81.82;99665.75;103568;1282;98443;-78
2023/02/18 02:18:37;;;;;;;9.70;2.10;;;;;;;7.00;81.78;99671.07;103656;1282;102403;-77
2023/02/18 02:21:55;;;;;;;16.90;2.60;;;;;;;6.98;81.84;99680.98;103634;1278;99190;-77
2023/02/18 02:25:03;;;;;;;8.50;1.80;;;;;;;6.96;81.66;99677.07;103617;1280;99231;-76
2023/02/18 02:27:56;;;;;;;14.50;3.50;;;;;;;6.94;81.72;99673.02;103594;1279;97915;-76
2023/02/18 02:31:17;;;;;;;6.10;1.80;;;;;;;6.93;81.70;99676.75;103686;1282;97963;-78
2023/02/18 02:34:32;;;;;;;11.40;2.10;;;;;;;6.90;81.61;99681.17;103781;1282;102615;-76
2023/02/18 02:37:24;;;;;;;13.80;3.30;;;;;;;6.87;81.60;99686.17;103594;1282;100509;-76
2023/02/18 02:40:28;;;;;;;13.30;2.60;;;;;;;6.85;81.68;99693.31;103586;1282;99080;-76
2023/02/18 02:43:26;;;;;;;13.40;2.30;;;;;;;6.83;81.85;99693.28;103571;1282;98036;-75
2023/02/18 02:46:30;;;;;;;6.50;2.20;;;;;;;6.81;81.73;99692.94;103566;1280;98455;-77
2023/02/18 02:49:29;;;;;;;12.80;3.60;;;;;;;6.78;81.75;99693.88;103562;1282;103013;-78
2023/02/18 02:52:22;;;;;;;11.90;2.60;;;;;;;6.76;81.69;99693.10;103522;1282;99253;-76
2023/02/18 02:55:08;;;;;;;10.50;2.30;;;;;;;6.73;81.93;99693.77;103587;1281;100137;-76
2023/02/18 02:57:55;;;;;;;12.10;2.40;;;;;;;6.70;81.53;99695.33;103474;1278;98078;-76
2023/02/18 03:01:01;;;;;;;12.90;2.40;;;;;;;6.68;81.68;99689.77;103699;1279;98551;-76
2023/02/18 03:04:27;;;;;;;11.50;2.30;;;;;;;6.65;81.62;99696.15;103607;1282;102677;-76
2023/02/18 03:07:40;;;;;;;10.30;3.40;;;;;;;6.62;81.32;99699.21;103570;1280;100912;-77
2023/02/18 03:10:50;;;;;;;10.90;2.70;;;;;;;6.60;81.37;99706.23;103538;1280;98591;-77
2023/02/18 03:13:50;;;;;;;14.50;2.70;;;;;;;6.57;81.43;99702.05;103588;1280;98219;-77
2023/02/18 03:16:56;;;;;;;13.50;2.90;;;;;;;6.56;81.38;99703.50;103695;1282;98055;-77
2023/02/18 03:19:51;;;;;;;10.20;2.30;;;;;;;6.54;80.86;99707.86;103751;1280;102720;-77
2023/02/18 03:22:42;;;;;;;9.70;3.10;;;;;;;6.51;80.88;99713.45;104055;1280;99097;-78
2023/02/18 03:25:29;;;;;;;10.90;2.20;;;;;;;6.50;80.94;99702.60;104068;1280;98103;-78
2023/02/18 03:28:18;;;;;;;9.80;1.90;;;;;;;6.49;81.13;99702.42;103842;1280;98088;-76
2023/02/18 03:31:12;;;;;;;7.50;2.10;;;;;;;6.47;80.94;99706.16;103842;1279;99184;-76
2023/02/18 03:34:05;;;;;;;9.00;2.80;;;;;;;6.46;80.73;99713.42;103866;1282;101427;-76
2023/02/18 03:36:52;;;;;;;9.80;2.60;;;;;;;6.44;80.83;99718.62;103979;1282;100111;-77
2023/02/18 03:39:43;;;;;;;17.70;3.90;;;;;;;6.40;80.67;99719.73;103725;1280;98755;-76
2023/02/18 03:42:28;;;;;;;16.00;3.10;;;;;;;6.38;80.40;99721.32;103886;1279;97995;-75
2023/02/18 03:45:13;;;;;;;16.30;2.50;;;;;;;6.34;80.61;99720.32;103639;1277;98025;-77
2023/02/18 03:47:59;;;;;;;8.00;3.20;;;;;;;6.30;80.84;99721.29;103557;1282;102816;-76
2023/02/18 03:50:43;;;;;;;14.70;2.20;;;;;;;6.28;80.77;99719.88;103657;1283;100429;-75
2023/02/18 03:53:28;;;;;;;18.30;3.20;;;;;;;6.24;80.83;99720.04;103622;1280;98720;-76
2023/02/18 03:56:13;;;;;;;12.80;2.70;;;;;;;6.21;81.03;99724.00;103790;1282;98000;-77
2023/02/18 03:58:58;;;;;;;11.40;2.50;;;;;;;6.18;81.15;99722.77;103948;1282;98481;-76
2023/02/18 04:01:43;;;;;;;10.80;2.40;;;;;;;6.16;81.23;99725.40;105214;1279;101526;-78
2023/02/18 04:04:27;;;;;;;12.10;2.00;;;;;;;6.15;81.30;99727.88;103865;1281;99973;-76
2023/02/18 04:07:12;;;;;;;14.20;3.10;;;;;;;6.15;81.32;99727.91;103685;1282;98897;-75
2023/02/18 04:09:56;;;;;;;17.00;2.60;;;;;;;6.15;81.16;99730.93;103571;1282;98014;-75
2023/02/18 04:12:41;;;;;;;9.10;2.10;;;;;;;6.13;81.21;99731.08;103807;1282;98399;-76
2023/02/18 04:15:26;;;;;;;8.00;2.00;;;;;;;6.11;81.30;99732.92;103729;1280;101616;-78
2023/02/18 04:18:11;;;;;;;10.40;2.30;;;;;;;6.10;81.30;99737.35;103756;1280;101439;-78
2023/02/18 04:20:55;;;;;;;13.60;2.20;;;;;;;6.09;81.09;99738.02;103633;1284;98453;-75
2023/02/18 04:23:40;;;;;;;12.60;3.20;;;;;;;6.07;81.36;99739.64;103638;1281;98107;-75
2023/02/18 04:26:25;;;;;;;15.80;2.60;;;;;;;6.05;81.03;99742.69;103612;1282;98494;-75
2023/02/18 04:29:10;;;;;;;14.90;2.80;;;;;;;6.03;81.12;99739.53;103617;1282;101391;-77
2023/02/18 04:31:54;;;;;;;10.70;2.50;;;;;;;6.02;81.17;99736.50;103635;1282;99109;-77
2023/02/18 04:34:39;;;;;;;10.40;3.30;;;;;;;6.01;80.97;99737.86;103644;1281;99205;-77
2023/02/18 04:37:24;;;;;;;15.40;2.60;;;;;;;6.00;81.29;99741.17;103657;1282;98001;-76
2023/02/18 04:40:08;;;;;;;6.90;2.40;;;;;;;5.98;81.32;99739.11;103628;1280;99222;-76
2023/02/18 04:42:53;;;;;;;11.20;2.10;;;;;;;5.96;81.18;99748.20;103555;1282;101447;-77
2023/02/18 04:45:38;;;;;;;10.80;3.20;;;;;;;5.94;81.09;99738.76;103619;1282;100165;-75
2023/02/18 04:48:22;;;;;;;12.00;3.40;;;;;;;5.90;80.91;99734.52;103763;1280;99404;-76
2023/02/18 04:51:07;;;;;;;8.90;2.00;;;;;;;5.89;81.13;99739.14;103823;1283;97973;-76
2023/02/18 04:53:51;;;;;;;16.50;2.50;;;;;;;5.87;81.04;99731.23;103864;1282;98008;-76
2023/02/18 04:56:36;;;;;;;8.20;2.10;;;;;;;5.85;81.11;99739.75;103769;1280;102505;-76
2023/02/18 04:59:21;;;;;;;12.40;3.60;;;;;;;5.84;81.04;99733.52;103763;1278;99193;-76
2023/02/18 05:02:06;;;;;;;9.60;3.00;;;;;;;5.83;80.99;99738.38;103634;1281;98686;-76
2023/02/18 05:04:51;;;;;;;15.70;2.90;;;;;;;5.83;81.07;99738.93;103622;1281;98033;-77
2023/02/18 05:07:36;;;;;;;10.60;2.60;;;;;;;5.82;80.93;99737.28;103527;1280;98558;-77
2023/02/18 05:10:21;;;;;;;10.30;2.80;;;;;;;5.82;81.10;99748.04;103772;1280;101422;-78
2023/02/18 05:13:05;;;;;;;9.60;1.90;;;;;;;5.81;81.00;99757.21;103749;1283;99258;-76
2023/02/18 05:15:50;;;;;;;12.70;3.30;;;;;;;5.80;81.24;99759.85;103813;1282;98378;-76
2023/02/18 05:18:35;;;;;;;11.20;2.50;;;;;;;5.79;81.30;99750.55;103776;1282;98718;-78
2023/02/18 05:21:20;;;;;;;9.90;2.40;;;;;;;5.79;81.53;99756.53;103760;1282;98559;-77
2023/02/18 05:24:05;;;;;;;11.20;2.30;;;;;;;5.79;81.38;99756.08;103758;1280;101462;-75
2023/02/18 05:26:49;;;;;;;14.50;3.00;;;;;;;5.79;81.22;99765.02;103619;1280;99347;-76
2023/02/18 05:29:34;;;;;;;12.80;3.30;;;;;;;5.79;81.40;99763.23;103599;1280;97993;-76
2023/02/18 05:32:19;;;;;;;15.70;4.00;;;;;;;5.80;81.34;99757.15;103654;1282;98027;-77
2023/02/18 05:35:04;;;;;;;11.20;3.80;;;;;;;5.79;81.48;99754.97;103796;1280;98570;-75
2023/02/18 05:37:49;;;;;;;15.20;3.80;;;;;;;5.78;81.29;99751.02;103790;1280;102364;-75
2023/02/18 05:40:33;;;;;;;11.80;2.40;;;;;;;5.78;81.39;99756.18;103885;1280;99204;-77
2023/02/18 05:43:18;;;;;;;10.10;2.20;;;;;;;5.77;81.48;99758.00;103783;1282;98326;-75
2023/02/18 05:46:03;;;;;;;10.10;2.50;;;;;;;5.77;81.44;99766.31;103697;1282;99261;-76
2023/02/18 05:48:48;;;;;;;12.50;2.40;;;;;;;5.77;81.24;99767.41;103643;1281;98572;-75
2023/02/18 05:51:32;;;;;;;8.20;2.50;;;;;;;5.77;81.18;99769.77;103822;1280;101472;-76
2023/02/18 05:54:17;;;;;;;8.80;2.90;;;;;;;5.77;81.18;99765.86;103645;1280;99288;-75
2023/02/18 05:57:03;;;;;;;12.00;2.80;;;;;;;5.77;81.09;99772.27;103693;1282;99072;-75
2023/02/18 05:59:48;;;;;;;13.20;2.60;;;;;;;5.77;81.12;99773.13;103614;1280;98017;-76
2023/02/18 06:02:32;;;;;;;16.00;2.60;;;;;;;5.77;81.24;99780.02;103617;1282;99709;-76
2023/02/18 06:05:17;;;;;;;10.40;2.60;;;;;;;5.77;81.26;99785.71;103612;1282;101583;-76
2023/02/18 06:08:02;;;;;;;10.70;2.90;;;;;;;5.78;80.94;99791.95;103618;1281;100161;-75
2023/02/18 06:10:47;;;;;;;10.90;3.00;;;;;;;5.79;80.93;99796.13;103756;1280;98446;-76
2023/02/18 06:13:31;;;;;;;16.10;3.40;;;;;;;5.78;80.80;99799.02;103695;1280;98123;-77
2023/02/18 06:16:16;;;;;;;13.70;2.80;;;;;;;5.78;80.71;99792.51;103811;1280;99723;-75
2023/02/18 06:19:00;;;;;;;14.00;2.80;;;;;;;5.78;80.79;99792.95;104254;1282;102275;-82
2023/02/18 06:21:45;;;;;;;11.10;2.60;;;;;;;5.79;80.78;99800.88;104857;1280;101380;-85
2023/02/18 06:24:31;;;;;;;13.90;3.10;;;;;;;5.79;80.77;99798.71;104720;1285;97734;-84
2023/02/18 06:27:15;;;;;;;14.40;3.00;;;;;;;5.80;80.59;99803.59;104545;1283;98040;-82
2023/02/18 06:30:00;;;;;;;14.10;3.00;;;;;;;5.81;80.68;99817.60;104540;1282;98877;-79
2023/02/18 06:32:45;;;;;;;14.90;2.90;;;;;;;5.82;80.53;99822.29;104781;1281;102838;-83
2023/02/18 06:35:30;;;;;;;13.30;3.70;;;;;;;5.83;80.40;99818.66;104502;1281;99773;-84
2023/02/18 06:38:16;;;;;;;21.10;4.10;;;;;;;5.84;80.42;99824.55;104316;1285;100063;-84
2023/02/18 06:41:01;;;;;;;19.70;3.90;;;;;;;5.85;80.55;99833.13;104546;1279;98018;-78
2023/02/18 06:43:45;;;;;;;18.90;3.20;;;;;;;5.85;80.26;99835.75;104536;1277;98018;-82
2023/02/18 06:46:31;;;;;;;12.40;2.40;;;;;;;5.86;80.29;99843.77;103886;1279;102078;-76
2023/02/18 06:49:15;;;;;;;18.20;3.40;;;;;;;5.88;80.18;99847.70;103846;1280;101045;-76
2023/02/18 06:52:00;;;;;;;13.60;3.00;;;;;;;5.88;80.26;99843.94;103593;1282;98119;-75
2023/02/18 06:54:44;;;;;;;11.90;3.10;;;;;;;5.87;80.09;99847.73;103604;1279;97861;-76
2023/02/18 06:57:29;;;;;;;14.50;2.90;;;;;;;5.87;80.24;99854.72;103883;1280;96748;-77
2023/02/18 07:00:14;;;;;;;16.80;3.80;;;;;;;5.88;80.38;99859.55;103969;1280;101450;-76
2023/02/18 07:02:59;;;;;;;15.30;3.70;;;;;;;5.88;80.40;99867.49;103844;1280;100576;-79
2023/02/18 07:05:44;;;;;;;11.60;3.10;;;;;;;5.88;79.98;99867.70;103835;1282;98043;-76
2023/02/18 07:08:29;;;;;;;12.90;2.60;;;;;;;5.88;80.06;99872.24;103725;1280;97936;-77
2023/02/18 07:11:14;;;;;;;10.70;2.70;;;;;;;5.89;80.16;99876.27;103639;1280;99183;-78
2023/02/18 07:13:59;;;;;;;14.90;3.30;;;;;;;5.90;80.35;99884.49;103753;1279;101470;-77
2023/02/18 07:16:43;;;;;;;12.40;3.80;;;;;;;5.91;80.38;99892.13;103686;1282;99191;-76
2023/02/18 07:19:28;;;;;;;14.90;2.90;;;;;;;5.92;80.33;99887.77;103991;1280;98514;-83
2023/02/18 07:22:13;;;;;;;7.90;2.10;;;;;;;5.94;80.25;99890.23;104436;1280;98084;-83
2023/02/18 07:24:58;;;;;;;18.80;3.40;;;;;;;5.95;80.32;99888.63;104534;1279;97962;-79
2023/02/18 07:27:43;;;;;;;14.60;2.80;;;;;;;5.98;80.19;99893.45;104220;1282;101441;-83
2023/02/18 07:30:28;;;;;;;10.80;3.70;;;;;;;6.00;80.03;99888.95;103701;1280;99358;-76
2023/02/18 07:33:13;;;;;;;8.40;2.80;;;;;;;6.02;79.95;99885.32;103789;1282;99200;-76
2023/02/18 07:36:00;;;;;;;11.80;2.80;;;;;;;6.05;79.96;99881.98;103765;1282;97991;-76
2023/02/18 07:38:45;;;;;;;17.40;3.50;;;;;;;6.08;79.71;99882.89;103789;1282;98446;-78
2023/02/18 07:41:30;;;;;;;14.70;2.80;;;;;;;6.11;79.56;99885.56;103767;1281;102277;-77
2023/02/18 07:44:15;;;;;;;11.40;3.10;;;;;;;6.13;79.60;99885.64;103868;1279;99131;-78
2023/02/18 07:47:01;;;;;;;11.80;3.00;;;;;;;6.16;79.51;99882.11;104334;1280;98962;-77
2023/02/18 07:49:46;;;;;;;9.20;2.20;;;;;;;6.19;79.08;99878.27;103793;1283;98007;-76
2023/02/18 07:52:31;;;;;;;16.20;4.10;;;;;;;6.20;79.14;99880.56;104130;1280;98092;-82
2023/02/18 07:55:18;;;;;;;15.70;3.70;;;;;;;6.22;79.34;99882.34;104503;1279;102051;-83
2023/02/18 07:58:03;;;;;;;15.00;3.80;;;;;;;6.23;78.74;99880.98;104178;1283;109094;-75
2023/02/18 08:00:48;;;;;;;15.80;3.20;;;;;;;6.23;78.84;99885.63;103596;1280;98529;-75
2023/02/18 08:03:34;;;;;;;14.20;3.30;;;;;;;6.24;78.87;99889.70;103601;1280;98067;-75
2023/02/18 08:06:24;;;;;;;17.60;5.00;;;;;;;6.25;78.96;99894.05;103579;1282;98558;-76
2023/02/18 08:09:09;;;;;;;13.50;3.90;;;;;;;6.27;79.12;99894.94;103557;1280;101334;-74
2023/02/18 08:11:53;;;;;;;12.10;4.60;;;;;;;6.30;79.32;99901.48;103612;1280;99342;-73
2023/02/18 08:14:39;;;;;;;16.00;4.50;;;;;;;6.33;79.09;99902.67;103466;1280;98104;-76
2023/02/18 08:17:27;;;;;;;12.10;4.40;;;;;;;6.37;79.14;99904.15;103944;1280;98011;-81
2023/02/18 08:20:12;;;;;;;16.90;5.40;;;;;;;6.41;79.04;99904.99;104825;1280;97942;-81
2023/02/18 08:22:56;;;;;;;11.90;3.60;;;;;;;6.42;78.71;99901.69;105114;1282;102575;-81
2023/02/18 08:25:49;;;;;;;15.90;3.50;;;;;;;6.43;78.62;99902.11;104705;1280;99257;-83
2023/02/18 08:28:34;;;;;;;11.10;2.50;;;;;;;6.45;78.52;99903.13;104361;1280;99938;-82
2023/02/18 08:31:26;;;;;;;11.40;3.20;;;;;;;6.46;77.85;99903.98;104895;1281;97957;-83
2023/02/18 08:34:11;;;;;;;;;;;;;;;6.47;77.34;99900.22;104775;1282;98008;-82
2023/02/18 08:36:56;;;;;;;14.10;3.10;;;;;;;6.47;77.36;99895.38;104461;1283;102734;-81
2023/02/18 08:39:41;;;;;;;12.10;3.60;;;;;;;6.51;77.57;99896.58;104632;1282;100143;-84
2023/02/18 08:42:25;;;;;;;19.50;3.30;;;;;;;6.54;77.49;99895.79;104597;1280;98996;-83
2023/02/18 08:45:11;;;;;;;11.90;2.50;;;;;;;6.55;77.32;99898.34;104814;1282;97919;-82
2023/02/18 08:47:56;;;;;;;12.60;2.90;;;;;;;6.56;77.05;99901.09;104664;1280;97969;-83
2023/02/18 08:50:41;;;;;;;11.40;2.90;;;;;;;6.57;77.15;99900.42;104876;1277;102453;-85
2023/02/18 08:53:26;;;;;;;10.20;3.60;;;;;;;6.59;77.04;99902.46;104915;1282;99122;-80
2023/02/18 08:56:13;;;;;;;10.90;3.40;;;;;;;6.61;77.07;99901.84;104764;1282;98438;-78
2023/02/18 08:58:58;;;;;;;8.30;2.30;;;;;;;6.65;76.81;99900.06;104364;1282;98068;-82
2023/02/18 09:01:43;;;;;;;12.30;3.20;;;;;;;6.68;76.66;99899.33;104591;1282;98553;-83
2023/02/18 09:04:29;;;;;;;13.90;3.20;;;;;;;6.72;76.56;99898.59;104626;1284;102563;-82
2023/02/18 09:07:14;;;;;;;13.90;5.00;;;;;;;6.77;76.21;99891.27;104730;1279;99184;-83
2023/02/18 09:09:59;;;;;;;17.20;3.50;;;;;;;6.81;75.74;99898.98;104867;1283;99182;-81
2023/02/18 09:12:44;;;;;;;13.80;2.90;;;;;;;6.84;75.62;99895.23;104173;1281;97982;-83
2023/02/18 09:15:37;;;;;;;16.00;2.60;;;;;;;6.88;75.50;99899.92;104668;1282;99677;-89
2023/02/18 09:18:34;;;;;;;;;;;;;;;;;;;;;
2023/02/18 09:21:27;;;;;;;8.50;2.30;;;;;;;6.90;75.10;99908.27;104782;1278;100674;-83
2023/02/18 09:24:12;;;;;;;9.50;2.20;;;;;;;6.90;74.92;99903.94;105010;1282;97966;-82
2023/02/18 09:26:57;;;;;;;13.60;4.00;;;;;;;6.92;74.90;99908.84;104772;1281;97915;-82
2023/02/18 09:29:43;;;;;;;12.40;3.00;;;;;;;6.94;74.53;99907.48;104932;1279;98076;-88
2023/02/18 09:33:19;;;;;;;;;;;;;;;;;;;;;
2023/02/18 09:36:27;;;;;;;14.00;4.00;;;;;;;7.06;74.71;99902.05;104978;1277;99396;-73
2023/02/18 09:39:13;;;;;;;9.00;2.80;;;;;;;7.11;74.62;99911.36;105293;1281;99949;-86
2023/02/18 09:42:28;;;;;;;15.30;3.00;;;;;;;7.15;74.36;99907.73;104955;1282;96666;-87
2023/02/18 09:45:40;;;;;;;17.40;5.90;;;;;;;7.18;73.99;99914.42;104803;1280;98000;-85
2023/02/18 09:48:36;;;;;;;31.20;13.90;;;;;;;7.20;73.65;99920.83;104962;1285;102395;-85
2023/02/18 09:51:21;;;;;;;23.40;7.20;;;;;;;7.20;73.60;99919.77;104923;1276;101546;-76
2023/02/18 09:54:11;;;;;;;29.40;8.40;;;;;;;7.20;73.14;99925.38;103780;1276;98973;-76
2023/02/18 09:57:07;;;;;;;;;;;;;;;;;;;;;
2023/02/18 10:00:04;;;;;;;15.60;6.30;;;;;;;7.16;72.85;99931.23;104530;1276;97439;-78
2023/02/18 10:03:00;;;;;;;18.90;5.20;;;;;;;7.13;72.76;99933.05;104047;1290;102580;-78
2023/02/18 10:05:59;;;;;;;24.40;8.00;;;;;;;7.11;72.52;99928.40;104514;1280;100803;-76
2023/02/18 10:09:18;;;;;;;17.50;5.50;;;;;;;7.13;72.95;99935.02;104005;1276;99234;-88
2023/02/18 10:12:16;;;;;;;21.00;7.10;;;;;;;7.16;73.12;99937.81;104854;1276;97929;-84
2023/02/18 10:15:01;;;;;;;14.30;4.90;;;;;;;7.18;72.74;99934.45;104699;1276;97951;-82
2023/02/18 10:17:50;;;;;;;15.60;6.40;;;;;;;7.19;72.49;99934.19;104734;1280;102768;-83
2023/02/18 10:20:35;;;;;;;22.90;8.50;;;;;;;7.20;72.55;99940.17;104881;1277;99680;-80
2023/02/18 10:23:20;;;;;;;18.30;5.90;;;;;;;7.23;72.93;99944.94;105044;1277;97972;-82
2023/02/18 10:26:11;;;;;;;11.80;4.20;;;;;;;7.26;73.01;99941.58;104806;1279;98019;-82
2023/02/18 10:28:57;;;;;;;16.70;5.50;;;;;;;7.29;72.92;99943.84;104926;1281;97979;-80
2023/02/18 10:31:54;;;;;;;22.20;6.30;;;;;;;7.31;72.78;99940.67;104959;1280;111386;-83
2023/02/18 10:34:50;;;;;;;32.50;10.50;;;;;;;7.29;72.96;99934.25;104942;1280;99815;-88
2023/02/18 10:37:49;;;;;;;24.80;6.70;;;;;;;7.26;72.71;99932.29;104876;1280;97699;-87
2023/02/18 10:41:12;;;;;;;35.70;11.00;;;;;;;7.23;72.69;99922.47;104827;1279;98019;-86
2023/02/18 10:44:21;;;;;;;45.10;14.80;;;;;;;7.19;72.73;99918.30;104971;1279;98516;-85
2023/02/18 10:47:37;;;;;;;31.80;9.30;;;;;;;7.19;73.30;99916.33;104774;1280;102032;-87
2023/02/18 10:54:46;;;;;;;33.10;10.20;;;;;;;7.20;73.69;99926.28;105127;1276;97782;-86
2023/02/18 10:58:04;;;;;;;;;;;;;;;;;;;;;
2023/02/18 11:01:34;;;;;;;;;;;;;;;;;;;;;
2023/02/18 11:04:45;;;;;;;19.80;6.20;;;;;;;7.24;73.75;99912.38;104950;1277;101335;-87
2023/02/18 11:07:37;;;;;;;24.50;8.30;;;;;;;7.23;73.76;99912.29;104664;1276;100449;-84
2023/02/18 11:10:30;;;;;;;28.70;8.80;;;;;;;7.23;74.15;99910.48;104731;1276;98073;-80
2023/02/18 11:13:29;;;;;;;19.30;7.00;;;;;;;7.26;74.39;99913.02;104870;1280;97992;-85
2023/02/18 11:16:14;;;;;;;25.80;9.50;;;;;;;7.23;73.86;99907.60;104600;1278;97959;-83
2023/02/18 11:19:03;;;;;;;23.50;7.70;;;;;;;7.23;73.85;99904.49;104591;1280;102672;-79
2023/02/18 11:21:48;;;;;;;21.60;6.00;;;;;;;7.27;74.30;99893.68;105126;1276;100465;-83
2023/02/18 11:24:38;;;;;;;27.50;8.50;;;;;;;7.29;73.82;99892.94;104684;1282;99264;-84
2023/02/18 11:27:57;;;;;;;22.30;7.10;;;;;;;7.25;73.29;99895.48;104872;1276;98008;-83
2023/02/18 11:34:31;;;;;;;25.40;6.40;;;;;;;7.23;73.53;99891.00;105312;1277;101503;-87
2023/02/18 11:37:19;;;;;;;20.60;6.10;;;;;;;7.22;73.65;99886.11;105187;1277;99094;-86
2023/02/18 11:40:19;;;;;;;20.20;5.60;;;;;;;7.21;73.42;99888.56;104823;1279;97933;-87
2023/02/18 11:43:11;;;;;;;25.60;6.30;;;;;;;7.16;72.89;99886.68;105250;1277;98011;-85
2023/02/18 11:46:26;;;;;;;19.90;5.50;;;;;;;7.13;72.75;99881.67;105122;1277;98542;-92
2023/02/18 11:49:24;;;;;;;16.20;5.60;;;;;;;7.15;73.24;99884.09;104979;1276;101435;-90
2023/02/18 11:52:32;;;;;;;13.30;5.00;;;;;;;7.20;73.31;99878.88;105104;1282;99787;-89
2023/02/18 11:55:29;;;;;;;17.30;5.50;;;;;;;7.25;73.52;99880.77;105048;1277;99387;-87
2023/02/18 11:58:38;;;;;;;18.10;5.20;;;;;;;7.31;74.06;99874.70;104650;1276;97978;-88
2023/02/18 12:01:50;;;;;;;21.20;5.70;;;;;;;7.36;73.51;99869.15;104976;1283;97858;-84
2023/02/18 12:04:48;;;;;;;13.00;4.70;;;;;;;7.39;73.11;99868.91;104648;1284;101549;-85
2023/02/18 12:07:40;;;;;;;35.80;14.70;;;;;;;7.41;72.95;99864.97;104896;1280;101337;-83
2023/02/18 12:10:37;;;;;;;18.70;7.50;;;;;;;7.42;72.64;99862.38;105109;1282;97953;-84
2023/02/18 12:18:11;;;;;;;16.70;7.80;;;;;;;7.43;72.12;99850.30;105106;1277;97922;-91
2023/02/18 12:24:42;;;;;;;17.50;5.00;;;;;;;7.44;72.11;99843.67;101466;1274;97985;-87
2023/02/18 12:28:02;;;;;;;13.20;4.30;;;;;;;7.44;71.72;99833.52;105354;1273;98549;-85
2023/02/18 12:30:50;;;;;;;16.60;4.70;;;;;;;7.42;71.03;99842.27;105117;1273;98007;-86
2023/02/18 12:33:57;;;;;;;17.60;5.40;;;;;;;7.43;70.96;99835.30;105196;1279;99180;-85
2023/02/18 12:37:32;;;;;;;16.20;5.50;;;;;;;7.44;71.08;99832.81;105551;1274;101417;-87
2023/02/18 12:40:37;;;;;;;14.80;5.00;;;;;;;7.44;70.82;99826.05;105062;1277;100811;-77
2023/02/18 12:43:34;;;;;;;21.20;5.00;;;;;;;7.45;71.03;99825.58;104598;1273;99202;-87
2023/02/18 12:50:21;;;;;;;16.00;5.20;;;;;;;7.45;71.19;99826.98;83555;1276;98256;-89
2023/02/18 12:53:23;;;;;;;15.00;6.00;;;;;;;7.46;71.54;99819.77;105884;1273;102612;-86
2023/02/18 12:56:46;;;;;;;12.20;3.90;;;;;;;7.48;71.38;99820.23;105005;1273;99095;-93
2023/02/18 12:59:50;;;;;;;15.60;3.70;;;;;;;7.49;71.59;99820.46;105161;1274;99646;-84
2023/02/18 13:02:47;;;;;;;21.10;5.40;;;;;;;7.50;71.46;99807.77;105214;1273;97989;-89
2023/02/18 13:06:07;;;;;;;21.00;6.90;;;;;;;7.48;71.48;99801.60;105222;1273;98468;-88
2023/02/18 13:09:06;;;;;;;26.00;9.40;;;;;;;7.45;71.78;99796.30;105231;1274;102460;-86
2023/02/18 13:12:40;;;;;;;19.90;7.50;;;;;;;7.44;72.04;99802.57;105282;1274;101675;-90
2023/02/18 13:19:09;;;;;;;13.90;4.50;;;;;;;7.42;72.12;99795.90;104309;1274;97891;-85
2023/02/18 13:21:58;;;;;;;17.00;4.40;;;;;;;7.41;72.12;99799.61;105505;1273;97927;-80
2023/02/18 13:24:49;;;;;;;14.10;4.20;;;;;;;7.41;71.97;99811.70;105472;1273;101440;-81
2023/02/18 13:27:52;;;;;;;14.20;4.40;;;;;;;7.38;72.05;99806.52;105043;1273;99097;-83
2023/02/18 13:30:51;;;;;;;15.90;4.90;;;;;;;7.36;72.05;99810.01;105104;1273;99768;-83
2023/02/18 13:34:07;;;;;;;11.90;4.50;;;;;;;7.34;72.15;99815.02;105151;1279;98011;-81
2023/02/18 13:37:13;;;;;;;20.40;5.80;;;;;;;7.32;72.19;99809.96;105526;1274;97953;-86
2023/02/18 13:43:04;;;;;;;;;;;;;;;;;;;;;
2023/02/18 13:46:08;;;;;;;21.60;8.20;;;;;;;7.30;72.34;99806.81;105178;1273;99100;-86
2023/02/18 13:49:01;;;;;;;19.90;7.10;;;;;;;7.29;72.60;99806.05;105511;1276;97970;-88
2023/02/18 13:51:52;;;;;;;16.40;6.60;;;;;;;7.27;72.52;99804.59;105434;1279;97812;-83